sensor_id;sensor_type;location;lat;lon;timestamp;temperature;humidity
20167;DHT22;10243;49.118;8.508;2022-11-14T00:02:00;11.00;99.90
20167;DHT22;10243;49.118;8.508;2022-11-14T00:05:21;11.00;99.90
20167;DHT22;10243;49.118;8.508;2022-11-14T00:08:43;11.00;99.90
20167;DHT22;10243;49.118;8.508;2022-11-14T00:12:04;11.00;99.90
20167;DHT22;10243;49.118;8.508;2022-11-14T00:15:24;11.00;99.90
20167;DHT22;10243;49.118;8.508;2022-11-14T00:18:45;11.00;99.90
20167;DHT22;10243;49.118;8.508;2022-11-14T00:22:05;10.90;99.90
20167;DHT22;10243;49.118;8.508;2022-11-14T00:25:27;10.80;99.90
20167;DHT22;10243;49.118;8.508;2022-11-14T00:28:48;10.90;99.90
20167;DHT22;10243;49.118;8.508;2022-11-14T00:32:08;10.90;99.90
20167;DHT22;10243;49.118;8.508;2022-11-14T00:35:29;11.00;99.90
20167;DHT22;10243;49.118;8.508;2022-11-14T00:38:51;11.00;99.90
20167;DHT22;10243;49.118;8.508;2022-11-14T00:42:14;11.00;99.90
20167;DHT22;10243;49.118;8.508;2022-11-14T00:45:34;11.00;99.90
20167;DHT22;10243;49.118;8.508;2022-11-14T00:48:55;11.00;99.90
20167;DHT22;10243;49.118;8.508;2022-11-14T00:52:15;11.00;99.90
20167;DHT22;10243;49.118;8.508;2022-11-14T00:55:36;11.00;99.90
20167;DHT22;10243;49.118;8.508;2022-11-14T00:58:57;11.00;99.90
20167;DHT22;10243;49.118;8.508;2022-11-14T01:02:18;11.00;99.90
20167;DHT22;10243;49.118;8.508;2022-11-14T01:05:40;11.00;99.90
20167;DHT22;10243;49.118;8.508;2022-11-14T01:09:01;11.00;99.90
20167;DHT22;10243;49.118;8.508;2022-11-14T01:12:21;11.00;99.90
20167;DHT22;10243;49.118;8.508;2022-11-14T01:15:44;10.90;99.90
20167;DHT22;10243;49.118;8.508;2022-11-14T01:19:05;11.00;99.90
20167;DHT22;10243;49.118;8.508;2022-11-14T01:22:25;10.90;99.90
20167;DHT22;10243;49.118;8.508;2022-11-14T01:25:46;11.00;99.90
20167;DHT22;10243;49.118;8.508;2022-11-14T01:29:07;11.00;99.90
20167;DHT22;10243;49.118;8.508;2022-11-14T01:32:29;11.00;99.90
20167;DHT22;10243;49.118;8.508;2022-11-14T01:35:49;11.00;99.90
20167;DHT22;10243;49.118;8.508;2022-11-14T01:39:09;11.00;99.90
20167;DHT22;10243;49.118;8.508;2022-11-14T01:42:30;11.00;99.90
20167;DHT22;10243;49.118;8.508;2022-11-14T01:45:53;10.90;99.90
20167;DHT22;10243;49.118;8.508;2022-11-14T01:49:19;10.90;99.90
20167;DHT22;10243;49.118;8.508;2022-11-14T01:52:41;10.90;99.90
20167;DHT22;10243;49.118;8.508;2022-11-14T01:56:04;10.90;99.90
20167;DHT22;10243;49.118;8.508;2022-11-14T01:59:30;10.90;99.90
20167;DHT22;10243;49.118;8.508;2022-11-14T02:02:52;10.90;99.90
20167;DHT22;10243;49.118;8.508;2022-11-14T02:06:18;10.80;99.90
20167;DHT22;10243;49.118;8.508;2022-11-14T02:09:43;10.70;99.90
20167;DHT22;10243;49.118;8.508;2022-11-14T02:13:05;10.60;99.90
20167;DHT22;10243;49.118;8.508;2022-11-14T02:16:25;10.60;99.90
20167;DHT22;10243;49.118;8.508;2022-11-14T02:19:49;10.60;99.90
20167;DHT22;10243;49.118;8.508;2022-11-14T02:23:11;10.60;99.90
20167;DHT22;10243;49.118;8.508;2022-11-14T02:26:31;10.50;99.90
20167;DHT22;10243;49.118;8.508;2022-11-14T02:29:52;10.50;99.90
20167;DHT22;10243;49.118;8.508;2022-11-14T02:33:13;10.50;99.90
20167;DHT22;10243;49.118;8.508;2022-11-14T02:36:33;10.40;99.90
20167;DHT22;10243;49.118;8.508;2022-11-14T02:39:55;10.40;99.90
20167;DHT22;10243;49.118;8.508;2022-11-14T02:43:15;10.50;99.90
20167;DHT22;10243;49.118;8.508;2022-11-14T02:46:36;10.40;99.90
20167;DHT22;10243;49.118;8.508;2022-11-14T02:49:56;10.30;99.90
20167;DHT22;10243;49.118;8.508;2022-11-14T02:53:17;10.40;99.90
20167;DHT22;10243;49.118;8.508;2022-11-14T02:56:38;10.30;99.90
20167;DHT22;10243;49.118;8.508;2022-11-14T02:59:59;10.40;99.90
20167;DHT22;10243;49.118;8.508;2022-11-14T03:03:20;10.30;99.90
20167;DHT22;10243;49.118;8.508;2022-11-14T03:06:40;10.20;99.90
20167;DHT22;10243;49.118;8.508;2022-11-14T03:10:01;10.20;99.90
20167;DHT22;10243;49.118;8.508;2022-11-14T03:13:22;10.10;99.90
20167;DHT22;10243;49.118;8.508;2022-11-14T03:16:47;10.20;99.90
20167;DHT22;10243;49.118;8.508;2022-11-14T03:20:08;10.20;99.90
20167;DHT22;10243;49.118;8.508;2022-11-14T03:23:29;10.30;99.90
20167;DHT22;10243;49.118;8.508;2022-11-14T03:26:50;10.40;99.90
20167;DHT22;10243;49.118;8.508;2022-11-14T03:30:12;10.30;99.90
20167;DHT22;10243;49.118;8.508;2022-11-14T03:33:34;10.30;99.90
20167;DHT22;10243;49.118;8.508;2022-11-14T03:36:55;10.30;99.90
20167;DHT22;10243;49.118;8.508;2022-11-14T03:40:15;10.30;99.90
20167;DHT22;10243;49.118;8.508;2022-11-14T03:43:36;10.20;99.90
20167;DHT22;10243;49.118;8.508;2022-11-14T03:46:57;10.30;99.90
20167;DHT22;10243;49.118;8.508;2022-11-14T03:50:18;10.30;99.90
20167;DHT22;10243;49.118;8.508;2022-11-14T03:53:38;10.30;99.90
20167;DHT22;10243;49.118;8.508;2022-11-14T03:56:59;10.20;99.90
20167;DHT22;10243;49.118;8.508;2022-11-14T04:00:20;10.10;99.90
20167;DHT22;10243;49.118;8.508;2022-11-14T04:03:41;10.10;99.90
20167;DHT22;10243;49.118;8.508;2022-11-14T04:07:01;10.00;99.90
20167;DHT22;10243;49.118;8.508;2022-11-14T04:10:22;10.10;99.90
20167;DHT22;10243;49.118;8.508;2022-11-14T04:13:43;10.10;99.90
20167;DHT22;10243;49.118;8.508;2022-11-14T04:17:03;9.90;99.90
20167;DHT22;10243;49.118;8.508;2022-11-14T04:20:25;10.00;99.90
20167;DHT22;10243;49.118;8.508;2022-11-14T04:23:45;10.10;99.90
20167;DHT22;10243;49.118;8.508;2022-11-14T04:27:06;10.20;99.90
20167;DHT22;10243;49.118;8.508;2022-11-14T04:30:26;10.00;99.90
20167;DHT22;10243;49.118;8.508;2022-11-14T04:33:47;10.00;99.90
20167;DHT22;10243;49.118;8.508;2022-11-14T04:37:09;10.10;99.90
20167;DHT22;10243;49.118;8.508;2022-11-14T04:40:29;10.00;99.90
20167;DHT22;10243;49.118;8.508;2022-11-14T04:43:50;10.10;99.90
20167;DHT22;10243;49.118;8.508;2022-11-14T04:47:10;10.10;99.90
20167;DHT22;10243;49.118;8.508;2022-11-14T04:50:30;10.10;99.90
20167;DHT22;10243;49.118;8.508;2022-11-14T04:53:52;9.90;99.90
20167;DHT22;10243;49.118;8.508;2022-11-14T04:57:13;9.80;99.90
20167;DHT22;10243;49.118;8.508;2022-11-14T05:00:34;9.60;99.90
20167;DHT22;10243;49.118;8.508;2022-11-14T05:03:55;9.60;99.90
20167;DHT22;10243;49.118;8.508;2022-11-14T05:07:15;9.40;99.90
20167;DHT22;10243;49.118;8.508;2022-11-14T05:10:41;9.40;99.90
20167;DHT22;10243;49.118;8.508;2022-11-14T05:14:01;9.50;99.90
20167;DHT22;10243;49.118;8.508;2022-11-14T05:17:21;9.50;99.90
20167;DHT22;10243;49.118;8.508;2022-11-14T05:20:42;9.60;99.90
20167;DHT22;10243;49.118;8.508;2022-11-14T05:24:03;9.50;99.90
20167;DHT22;10243;49.118;8.508;2022-11-14T05:27:25;9.50;99.90
20167;DHT22;10243;49.118;8.508;2022-11-14T05:30:45;9.50;99.90
20167;DHT22;10243;49.118;8.508;2022-11-14T05:34:05;9.50;99.90
20167;DHT22;10243;49.118;8.508;2022-11-14T05:37:26;9.40;99.90
20167;DHT22;10243;49.118;8.508;2022-11-14T05:40:46;9.50;99.90
20167;DHT22;10243;49.118;8.508;2022-11-14T05:44:08;9.40;99.90
20167;DHT22;10243;49.118;8.508;2022-11-14T05:47:29;9.50;99.90
20167;DHT22;10243;49.118;8.508;2022-11-14T05:50:53;9.50;99.90
20167;DHT22;10243;49.118;8.508;2022-11-14T05:54:13;9.50;99.90
20167;DHT22;10243;49.118;8.508;2022-11-14T05:57:34;9.50;99.90
20167;DHT22;10243;49.118;8.508;2022-11-14T06:01:02;9.50;99.90
20167;DHT22;10243;49.118;8.508;2022-11-14T06:04:23;9.50;99.90
20167;DHT22;10243;49.118;8.508;2022-11-14T06:07:44;9.50;99.90
20167;DHT22;10243;49.118;8.508;2022-11-14T06:11:06;9.50;99.90
20167;DHT22;10243;49.118;8.508;2022-11-14T06:14:27;9.30;99.90
20167;DHT22;10243;49.118;8.508;2022-11-14T06:17:51;9.20;99.90
20167;DHT22;10243;49.118;8.508;2022-11-14T06:21:13;9.50;99.90
20167;DHT22;10243;49.118;8.508;2022-11-14T06:24:33;9.50;99.90
20167;DHT22;10243;49.118;8.508;2022-11-14T06:27:54;9.60;99.90
20167;DHT22;10243;49.118;8.508;2022-11-14T06:31:14;9.60;99.90
20167;DHT22;10243;49.118;8.508;2022-11-14T06:34:36;9.60;99.90
20167;DHT22;10243;49.118;8.508;2022-11-14T06:37:58;9.40;99.90
20167;DHT22;10243;49.118;8.508;2022-11-14T06:41:20;9.50;99.90
20167;DHT22;10243;49.118;8.508;2022-11-14T06:44:40;9.60;99.90
20167;DHT22;10243;49.118;8.508;2022-11-14T06:48:01;9.60;99.90
20167;DHT22;10243;49.118;8.508;2022-11-14T06:51:23;9.70;99.90
20167;DHT22;10243;49.118;8.508;2022-11-14T06:54:43;9.70;99.90
20167;DHT22;10243;49.118;8.508;2022-11-14T06:58:04;9.60;99.90
20167;DHT22;10243;49.118;8.508;2022-11-14T07:01:25;9.60;99.90
20167;DHT22;10243;49.118;8.508;2022-11-14T07:04:45;9.20;99.90
20167;DHT22;10243;49.118;8.508;2022-11-14T07:08:07;9.40;99.90
20167;DHT22;10243;49.118;8.508;2022-11-14T07:11:28;9.10;99.90
20167;DHT22;10243;49.118;8.508;2022-11-14T07:14:50;9.00;99.90
20167;DHT22;10243;49.118;8.508;2022-11-14T07:18:10;9.10;99.90
20167;DHT22;10243;49.118;8.508;2022-11-14T07:21:32;9.20;99.90
20167;DHT22;10243;49.118;8.508;2022-11-14T07:24:54;9.20;99.90
20167;DHT22;10243;49.118;8.508;2022-11-14T07:28:14;9.20;99.90
20167;DHT22;10243;49.118;8.508;2022-11-14T07:31:35;9.00;99.90
20167;DHT22;10243;49.118;8.508;2022-11-14T07:34:56;8.90;99.90
20167;DHT22;10243;49.118;8.508;2022-11-14T07:38:16;8.90;99.90
20167;DHT22;10243;49.118;8.508;2022-11-14T07:41:38;9.00;99.90
20167;DHT22;10243;49.118;8.508;2022-11-14T07:44:59;9.10;99.90
20167;DHT22;10243;49.118;8.508;2022-11-14T07:48:20;9.10;99.90
20167;DHT22;10243;49.118;8.508;2022-11-14T07:51:41;9.10;99.90
20167;DHT22;10243;49.118;8.508;2022-11-14T07:55:02;9.10;99.90
20167;DHT22;10243;49.118;8.508;2022-11-14T07:58:24;9.20;99.90
20167;DHT22;10243;49.118;8.508;2022-11-14T08:01:44;9.10;99.90
20167;DHT22;10243;49.118;8.508;2022-11-14T08:05:06;9.00;99.90
20167;DHT22;10243;49.118;8.508;2022-11-14T08:08:26;9.00;99.90
20167;DHT22;10243;49.118;8.508;2022-11-14T08:11:46;9.00;99.90
20167;DHT22;10243;49.118;8.508;2022-11-14T08:15:10;8.90;99.90
20167;DHT22;10243;49.118;8.508;2022-11-14T08:18:30;8.90;99.90
20167;DHT22;10243;49.118;8.508;2022-11-14T08:21:51;9.20;99.90
20167;DHT22;10243;49.118;8.508;2022-11-14T08:25:12;9.30;99.90
20167;DHT22;10243;49.118;8.508;2022-11-14T08:28:32;9.70;99.90
20167;DHT22;10243;49.118;8.508;2022-11-14T08:31:54;9.70;99.90
20167;DHT22;10243;49.118;8.508;2022-11-14T08:35:14;9.80;99.90
20167;DHT22;10243;49.118;8.508;2022-11-14T08:38:35;9.50;99.90
20167;DHT22;10243;49.118;8.508;2022-11-14T08:41:56;9.40;99.90
20167;DHT22;10243;49.118;8.508;2022-11-14T08:45:16;9.30;99.90
20167;DHT22;10243;49.118;8.508;2022-11-14T08:48:38;9.50;99.90
20167;DHT22;10243;49.118;8.508;2022-11-14T08:51:58;9.80;99.90
20167;DHT22;10243;49.118;8.508;2022-11-14T08:55:19;9.90;99.90
20167;DHT22;10243;49.118;8.508;2022-11-14T08:58:39;9.80;99.90
20167;DHT22;10243;49.118;8.508;2022-11-14T09:02:00;9.50;99.90
20167;DHT22;10243;49.118;8.508;2022-11-14T09:05:22;9.90;99.90
20167;DHT22;10243;49.118;8.508;2022-11-14T09:08:42;10.10;99.90
20167;DHT22;10243;49.118;8.508;2022-11-14T09:12:03;10.40;99.90
20167;DHT22;10243;49.118;8.508;2022-11-14T09:15:24;10.50;99.90
20167;DHT22;10243;49.118;8.508;2022-11-14T09:18:46;10.60;99.90
20167;DHT22;10243;49.118;8.508;2022-11-14T09:22:09;10.80;99.90
20167;DHT22;10243;49.118;8.508;2022-11-14T09:25:29;10.80;99.90
20167;DHT22;10243;49.118;8.508;2022-11-14T09:28:49;10.80;99.90
20167;DHT22;10243;49.118;8.508;2022-11-14T09:32:10;10.90;99.90
20167;DHT22;10243;49.118;8.508;2022-11-14T09:35:31;11.00;99.90
20167;DHT22;10243;49.118;8.508;2022-11-14T09:38:52;11.00;99.90
20167;DHT22;10243;49.118;8.508;2022-11-14T09:42:27;11.20;99.90
20167;DHT22;10243;49.118;8.508;2022-11-14T09:45:50;11.20;99.90
20167;DHT22;10243;49.118;8.508;2022-11-14T09:49:22;11.20;99.90
20167;DHT22;10243;49.118;8.508;2022-11-14T09:52:45;11.20;99.90
20167;DHT22;10243;49.118;8.508;2022-11-14T09:56:12;11.10;99.90
20167;DHT22;10243;49.118;8.508;2022-11-14T09:59:33;11.20;99.90
20167;DHT22;10243;49.118;8.508;2022-11-14T10:03:06;11.30;99.90
20167;DHT22;10243;49.118;8.508;2022-11-14T10:06:32;11.40;99.90
20167;DHT22;10243;49.118;8.508;2022-11-14T10:10:02;11.40;99.90
20167;DHT22;10243;49.118;8.508;2022-11-14T10:13:46;11.60;99.90
20167;DHT22;10243;49.118;8.508;2022-11-14T10:17:28;11.50;99.90
20167;DHT22;10243;49.118;8.508;2022-11-14T10:21:00;11.50;99.90
20167;DHT22;10243;49.118;8.508;2022-11-14T10:24:41;11.40;99.90
20167;DHT22;10243;49.118;8.508;2022-11-14T10:28:19;11.40;99.90
20167;DHT22;10243;49.118;8.508;2022-11-14T10:31:52;11.30;99.90
20167;DHT22;10243;49.118;8.508;2022-11-14T10:35:18;11.40;99.90
20167;DHT22;10243;49.118;8.508;2022-11-14T10:38:44;11.40;99.90
20167;DHT22;10243;49.118;8.508;2022-11-14T10:42:11;11.40;99.90
20167;DHT22;10243;49.118;8.508;2022-11-14T10:45:35;11.50;99.90
20167;DHT22;10243;49.118;8.508;2022-11-14T10:48:58;11.40;99.90
20167;DHT22;10243;49.118;8.508;2022-11-14T10:52:21;11.40;99.90
20167;DHT22;10243;49.118;8.508;2022-11-14T10:55:45;11.40;99.90
20167;DHT22;10243;49.118;8.508;2022-11-14T10:59:09;11.50;99.90
20167;DHT22;10243;49.118;8.508;2022-11-14T11:02:46;11.50;99.90
20167;DHT22;10243;49.118;8.508;2022-11-14T11:06:23;11.60;99.90
20167;DHT22;10243;49.118;8.508;2022-11-14T11:09:50;11.40;99.90
20167;DHT22;10243;49.118;8.508;2022-11-14T11:13:45;11.40;99.90
20167;DHT22;10243;49.118;8.508;2022-11-14T11:17:22;11.30;99.90
20167;DHT22;10243;49.118;8.508;2022-11-14T11:20:43;11.30;99.90
20167;DHT22;10243;49.118;8.508;2022-11-14T11:24:07;11.20;99.90
20167;DHT22;10243;49.118;8.508;2022-11-14T11:27:29;11.20;99.90
20167;DHT22;10243;49.118;8.508;2022-11-14T11:30:55;11.10;99.90
20167;DHT22;10243;49.118;8.508;2022-11-14T11:34:21;11.10;99.90
20167;DHT22;10243;49.118;8.508;2022-11-14T11:37:48;11.10;99.90
20167;DHT22;10243;49.118;8.508;2022-11-14T11:41:20;11.20;99.90
20167;DHT22;10243;49.118;8.508;2022-11-14T11:44:44;11.30;99.90
20167;DHT22;10243;49.118;8.508;2022-11-14T11:48:14;11.40;99.90
20167;DHT22;10243;49.118;8.508;2022-11-14T11:51:40;11.30;99.90
20167;DHT22;10243;49.118;8.508;2022-11-14T11:55:11;11.30;99.90
20167;DHT22;10243;49.118;8.508;2022-11-14T11:58:42;11.20;99.90
20167;DHT22;10243;49.118;8.508;2022-11-14T12:02:21;11.40;99.90
20167;DHT22;10243;49.118;8.508;2022-11-14T12:05:49;11.30;99.90
20167;DHT22;10243;49.118;8.508;2022-11-14T12:09:16;11.40;99.90
20167;DHT22;10243;49.118;8.508;2022-11-14T12:13:03;11.40;99.90
20167;DHT22;10243;49.118;8.508;2022-11-14T12:16:39;11.50;99.90
20167;DHT22;10243;49.118;8.508;2022-11-14T12:20:26;11.50;99.90
20167;DHT22;10243;49.118;8.508;2022-11-14T12:24:10;11.60;99.90
20167;DHT22;10243;49.118;8.508;2022-11-14T12:31:15;11.80;99.90
20167;DHT22;10243;49.118;8.508;2022-11-14T12:34:39;11.80;99.90
20167;DHT22;10243;49.118;8.508;2022-11-14T12:38:05;12.00;99.90
20167;DHT22;10243;49.118;8.508;2022-11-14T12:41:34;12.00;99.90
20167;DHT22;10243;49.118;8.508;2022-11-14T12:44:56;12.10;99.90
20167;DHT22;10243;49.118;8.508;2022-11-14T12:48:21;12.10;99.90
20167;DHT22;10243;49.118;8.508;2022-11-14T12:51:50;12.30;99.90
20167;DHT22;10243;49.118;8.508;2022-11-14T12:59:21;12.50;99.90
20167;DHT22;10243;49.118;8.508;2022-11-14T13:06:46;12.50;99.90
20167;DHT22;10243;49.118;8.508;2022-11-14T13:10:14;12.60;99.90
20167;DHT22;10243;49.118;8.508;2022-11-14T13:13:55;12.40;99.90
20167;DHT22;10243;49.118;8.508;2022-11-14T13:17:36;12.30;99.90
20167;DHT22;10243;49.118;8.508;2022-11-14T13:21:23;12.30;99.90
20167;DHT22;10243;49.118;8.508;2022-11-14T13:25:24;12.30;99.90
20167;DHT22;10243;49.118;8.508;2022-11-14T13:28:47;12.10;99.90
20167;DHT22;10243;49.118;8.508;2022-11-14T13:32:09;12.10;99.90
20167;DHT22;10243;49.118;8.508;2022-11-14T13:35:42;12.30;99.90
20167;DHT22;10243;49.118;8.508;2022-11-14T13:39:16;12.20;99.90
20167;DHT22;10243;49.118;8.508;2022-11-14T13:42:47;12.40;99.90
20167;DHT22;10243;49.118;8.508;2022-11-14T13:46:12;12.50;99.90
20167;DHT22;10243;49.118;8.508;2022-11-14T13:49:53;12.60;99.90
20167;DHT22;10243;49.118;8.508;2022-11-14T13:53:17;12.70;99.90
20167;DHT22;10243;49.118;8.508;2022-11-14T13:56:51;12.80;99.90
20167;DHT22;10243;49.118;8.508;2022-11-14T14:00:16;12.70;99.90
20167;DHT22;10243;49.118;8.508;2022-11-14T14:03:45;12.80;99.90
20167;DHT22;10243;49.118;8.508;2022-11-14T14:07:14;12.70;99.90
20167;DHT22;10243;49.118;8.508;2022-11-14T14:10:41;12.70;99.90
20167;DHT22;10243;49.118;8.508;2022-11-14T14:14:08;12.70;99.90
20167;DHT22;10243;49.118;8.508;2022-11-14T14:17:43;12.80;99.90
20167;DHT22;10243;49.118;8.508;2022-11-14T14:21:18;12.90;99.90
20167;DHT22;10243;49.118;8.508;2022-11-14T14:24:49;12.80;99.90
20167;DHT22;10243;49.118;8.508;2022-11-14T14:28:17;12.90;99.90
20167;DHT22;10243;49.118;8.508;2022-11-14T14:31:40;12.80;99.90
20167;DHT22;10243;49.118;8.508;2022-11-14T14:35:24;12.90;99.90
20167;DHT22;10243;49.118;8.508;2022-11-14T14:38:46;12.90;99.90
20167;DHT22;10243;49.118;8.508;2022-11-14T14:42:10;12.90;99.90
20167;DHT22;10243;49.118;8.508;2022-11-14T14:45:35;12.90;99.90
20167;DHT22;10243;49.118;8.508;2022-11-14T14:49:03;12.90;99.90
20167;DHT22;10243;49.118;8.508;2022-11-14T14:52:29;12.80;99.90
20167;DHT22;10243;49.118;8.508;2022-11-14T14:55:52;12.90;99.90
20167;DHT22;10243;49.118;8.508;2022-11-14T14:59:17;12.80;99.90
20167;DHT22;10243;49.118;8.508;2022-11-14T15:02:38;12.70;99.90
20167;DHT22;10243;49.118;8.508;2022-11-14T15:06:00;12.90;99.90
20167;DHT22;10243;49.118;8.508;2022-11-14T15:09:24;13.00;99.90
20167;DHT22;10243;49.118;8.508;2022-11-14T15:12:45;13.00;99.90
20167;DHT22;10243;49.118;8.508;2022-11-14T15:16:07;13.00;99.90
20167;DHT22;10243;49.118;8.508;2022-11-14T15:19:32;13.00;99.90
20167;DHT22;10243;49.118;8.508;2022-11-14T15:23:05;13.10;99.90
20167;DHT22;10243;49.118;8.508;2022-11-14T15:26:37;13.00;99.90
20167;DHT22;10243;49.118;8.508;2022-11-14T15:30:02;13.00;99.90
20167;DHT22;10243;49.118;8.508;2022-11-14T15:33:28;13.00;99.90
20167;DHT22;10243;49.118;8.508;2022-11-14T15:37:18;13.00;99.90
20167;DHT22;10243;49.118;8.508;2022-11-14T15:40:39;13.00;99.90
20167;DHT22;10243;49.118;8.508;2022-11-14T15:44:01;12.90;99.90
20167;DHT22;10243;49.118;8.508;2022-11-14T15:47:24;12.90;99.90
20167;DHT22;10243;49.118;8.508;2022-11-14T15:50:48;12.90;99.90
20167;DHT22;10243;49.118;8.508;2022-11-14T15:54:27;12.80;99.90
20167;DHT22;10243;49.118;8.508;2022-11-14T15:57:47;12.60;99.90
20167;DHT22;10243;49.118;8.508;2022-11-14T16:01:12;12.50;99.90
20167;DHT22;10243;49.118;8.508;2022-11-14T16:04:36;12.30;99.90
20167;DHT22;10243;49.118;8.508;2022-11-14T16:07:57;12.20;99.90
20167;DHT22;10243;49.118;8.508;2022-11-14T16:11:17;12.10;99.90
20167;DHT22;10243;49.118;8.508;2022-11-14T16:14:38;12.00;99.90
20167;DHT22;10243;49.118;8.508;2022-11-14T16:18:00;11.90;99.90
20167;DHT22;10243;49.118;8.508;2022-11-14T16:21:20;11.90;99.90
20167;DHT22;10243;49.118;8.508;2022-11-14T16:24:41;11.70;99.90
20167;DHT22;10243;49.118;8.508;2022-11-14T16:28:01;11.50;99.90
20167;DHT22;10243;49.118;8.508;2022-11-14T16:31:22;11.40;99.90
20167;DHT22;10243;49.118;8.508;2022-11-14T16:34:44;11.40;99.90
20167;DHT22;10243;49.118;8.508;2022-11-14T16:38:04;11.40;99.90
20167;DHT22;10243;49.118;8.508;2022-11-14T16:41:25;11.40;99.90
20167;DHT22;10243;49.118;8.508;2022-11-14T16:44:46;11.40;99.90
20167;DHT22;10243;49.118;8.508;2022-11-14T16:48:06;11.30;99.90
20167;DHT22;10243;49.118;8.508;2022-11-14T16:51:33;11.20;99.90
20167;DHT22;10243;49.118;8.508;2022-11-14T16:55:03;11.00;99.90
20167;DHT22;10243;49.118;8.508;2022-11-14T16:58:24;10.80;99.90
20167;DHT22;10243;49.118;8.508;2022-11-14T17:01:44;10.90;99.90
20167;DHT22;10243;49.118;8.508;2022-11-14T17:05:06;11.20;99.90
20167;DHT22;10243;49.118;8.508;2022-11-14T17:08:28;11.30;99.90
20167;DHT22;10243;49.118;8.508;2022-11-14T17:11:48;11.40;99.90
20167;DHT22;10243;49.118;8.508;2022-11-14T17:15:09;11.50;99.90
20167;DHT22;10243;49.118;8.508;2022-11-14T17:18:30;11.60;99.90
20167;DHT22;10243;49.118;8.508;2022-11-14T17:21:50;11.60;99.90
20167;DHT22;10243;49.118;8.508;2022-11-14T17:25:12;11.60;99.90
20167;DHT22;10243;49.118;8.508;2022-11-14T17:28:33;11.60;99.90
20167;DHT22;10243;49.118;8.508;2022-11-14T17:31:53;11.30;99.90
20167;DHT22;10243;49.118;8.508;2022-11-14T17:35:14;11.20;99.90
20167;DHT22;10243;49.118;8.508;2022-11-14T17:38:36;11.30;99.90
20167;DHT22;10243;49.118;8.508;2022-11-14T17:41:58;11.40;99.90
20167;DHT22;10243;49.118;8.508;2022-11-14T17:45:18;11.30;99.90
20167;DHT22;10243;49.118;8.508;2022-11-14T17:48:39;11.40;99.90
20167;DHT22;10243;49.118;8.508;2022-11-14T17:51:59;11.50;99.90
20167;DHT22;10243;49.118;8.508;2022-11-14T17:55:20;11.50;99.90
20167;DHT22;10243;49.118;8.508;2022-11-14T17:58:43;11.60;99.90
20167;DHT22;10243;49.118;8.508;2022-11-14T18:02:03;11.60;99.90
20167;DHT22;10243;49.118;8.508;2022-11-14T18:05:24;11.80;99.90
20167;DHT22;10243;49.118;8.508;2022-11-14T18:08:45;11.80;99.90
20167;DHT22;10243;49.118;8.508;2022-11-14T18:12:05;11.90;99.90
20167;DHT22;10243;49.118;8.508;2022-11-14T18:15:27;12.00;99.90
20167;DHT22;10243;49.118;8.508;2022-11-14T18:18:47;11.80;99.90
20167;DHT22;10243;49.118;8.508;2022-11-14T18:22:09;11.90;99.90
20167;DHT22;10243;49.118;8.508;2022-11-14T18:25:29;12.00;99.90
20167;DHT22;10243;49.118;8.508;2022-11-14T18:28:53;12.00;99.90
20167;DHT22;10243;49.118;8.508;2022-11-14T18:32:15;11.90;99.90
20167;DHT22;10243;49.118;8.508;2022-11-14T18:35:36;11.90;99.90
20167;DHT22;10243;49.118;8.508;2022-11-14T18:38:56;12.00;99.90
20167;DHT22;10243;49.118;8.508;2022-11-14T18:42:17;12.00;99.90
20167;DHT22;10243;49.118;8.508;2022-11-14T18:45:37;11.90;99.90
20167;DHT22;10243;49.118;8.508;2022-11-14T18:48:59;11.90;99.90
20167;DHT22;10243;49.118;8.508;2022-11-14T18:52:20;11.90;99.90
20167;DHT22;10243;49.118;8.508;2022-11-14T18:55:40;11.80;99.90
20167;DHT22;10243;49.118;8.508;2022-11-14T18:59:01;11.60;99.90
20167;DHT22;10243;49.118;8.508;2022-11-14T19:02:21;11.60;99.90
20167;DHT22;10243;49.118;8.508;2022-11-14T19:05:43;11.60;99.90
20167;DHT22;10243;49.118;8.508;2022-11-14T19:09:05;11.60;99.90
20167;DHT22;10243;49.118;8.508;2022-11-14T19:12:26;11.50;99.90
20167;DHT22;10243;49.118;8.508;2022-11-14T19:15:46;11.50;99.90
20167;DHT22;10243;49.118;8.508;2022-11-14T19:19:07;11.50;99.90
20167;DHT22;10243;49.118;8.508;2022-11-14T19:22:29;11.60;99.90
20167;DHT22;10243;49.118;8.508;2022-11-14T19:25:50;11.60;99.90
20167;DHT22;10243;49.118;8.508;2022-11-14T19:29:10;11.40;99.90
20167;DHT22;10243;49.118;8.508;2022-11-14T19:32:32;11.40;99.90
20167;DHT22;10243;49.118;8.508;2022-11-14T19:35:53;11.30;99.90
20167;DHT22;10243;49.118;8.508;2022-11-14T19:39:15;11.10;99.90
20167;DHT22;10243;49.118;8.508;2022-11-14T19:42:35;11.10;99.90
20167;DHT22;10243;49.118;8.508;2022-11-14T19:45:59;11.00;99.90
20167;DHT22;10243;49.118;8.508;2022-11-14T19:49:20;11.00;99.90
20167;DHT22;10243;49.118;8.508;2022-11-14T19:52:41;11.00;99.90
20167;DHT22;10243;49.118;8.508;2022-11-14T19:56:05;11.00;99.90
20167;DHT22;10243;49.118;8.508;2022-11-14T19:59:26;11.10;99.90
20167;DHT22;10243;49.118;8.508;2022-11-14T20:02:46;11.00;99.90
20167;DHT22;10243;49.118;8.508;2022-11-14T20:06:13;11.00;99.90
20167;DHT22;10243;49.118;8.508;2022-11-14T20:09:34;11.00;99.90
20167;DHT22;10243;49.118;8.508;2022-11-14T20:12:56;10.90;99.90
20167;DHT22;10243;49.118;8.508;2022-11-14T20:16:18;11.00;99.90
20167;DHT22;10243;49.118;8.508;2022-11-14T20:19:39;11.00;99.90
20167;DHT22;10243;49.118;8.508;2022-11-14T20:23:00;11.00;99.90
20167;DHT22;10243;49.118;8.508;2022-11-14T20:26:21;11.10;99.90
20167;DHT22;10243;49.118;8.508;2022-11-14T20:29:43;11.10;99.90
20167;DHT22;10243;49.118;8.508;2022-11-14T20:33:04;11.20;99.90
20167;DHT22;10243;49.118;8.508;2022-11-14T20:36:25;11.20;99.90
20167;DHT22;10243;49.118;8.508;2022-11-14T20:39:46;11.20;99.90
20167;DHT22;10243;49.118;8.508;2022-11-14T20:43:07;11.30;99.90
20167;DHT22;10243;49.118;8.508;2022-11-14T20:46:29;11.40;99.90
20167;DHT22;10243;49.118;8.508;2022-11-14T20:49:49;11.40;99.90
20167;DHT22;10243;49.118;8.508;2022-11-14T20:53:10;11.40;99.90
20167;DHT22;10243;49.118;8.508;2022-11-14T20:56:31;11.40;99.90
20167;DHT22;10243;49.118;8.508;2022-11-14T20:59:51;11.50;99.90
20167;DHT22;10243;49.118;8.508;2022-11-14T21:03:13;11.50;99.90
20167;DHT22;10243;49.118;8.508;2022-11-14T21:06:34;11.40;99.90
20167;DHT22;10243;49.118;8.508;2022-11-14T21:09:55;11.30;99.90
20167;DHT22;10243;49.118;8.508;2022-11-14T21:13:29;11.30;99.90
20167;DHT22;10243;49.118;8.508;2022-11-14T21:17:07;11.30;99.90
20167;DHT22;10243;49.118;8.508;2022-11-14T21:20:29;10.90;99.90
20167;DHT22;10243;49.118;8.508;2022-11-14T21:23:50;11.10;99.90
20167;DHT22;10243;49.118;8.508;2022-11-14T21:27:10;11.30;99.90
20167;DHT22;10243;49.118;8.508;2022-11-14T21:30:31;11.40;99.90
20167;DHT22;10243;49.118;8.508;2022-11-14T21:33:54;11.40;99.90
20167;DHT22;10243;49.118;8.508;2022-11-14T21:37:17;11.50;99.90
20167;DHT22;10243;49.118;8.508;2022-11-14T21:40:37;11.60;99.90
20167;DHT22;10243;49.118;8.508;2022-11-14T21:43:59;11.60;99.90